Pagrindinis puslapis
METAR-TAF:

METAR-TAF

Oro uostai :

Bandirma, Turkija

platuma: 40-19N, ilguma: 027-58E, Aukštis: 51 m

Dabartinis oras

Ataskaita buvo paskelbta 8 valandos ir 38 minutes, ne 12:02 UTC
Vėjas 3 kt iš Šiaurės
Temperatūra 13°C
Drėgmė 94%
Slėgis 1020 hPa
Matomumas 10 km arba daugiau
Išsisklaidę debesys ne aukštis 3500 ft
Su prošvaistėmis ne aukštis 10000 ft

METAR: LTBG 151202Z 36003KT 9999 SCT035 BKN100 13/12 Q1020 RESHRA NOSIG RMK RWY18 01005KT

Laikas: 23:40 (20:40 UTC)

Prognozė

Ataskaita buvo paskelbta 6 minutes, ne 20:34 UTC
Prognozė galioja nuo 15 metu 21 UTC su 16 metu 06 UTC
Vėjas 2 kt nuo kintamojo kryptimis
Matomumas: 0600 m
rūkas
Tapsmas
nuo 15 metu 23 UTC su 16 metu 01 UTC
Matomumas: 0100 m
ne aukštis 100 ft

TAF: LTBG 152034Z 1521/1606 VRB02KT 0600 FG NSC BECMG 1523/1601 0100 VV001

Orai ataskaitas ir orų prognozės (METAR, TAF).

turimą stotys yra geltonos ir raudonos taškus žemėlapyje.

Perkelti pele per norėdami pamatyti stoties vardą.

Tada spustelėkite, norėdami matyti oro stebėjimo ir prognozės.

Norėdami pakeisti žemėlapį: spustelėkite ant žalios mygtukų su juodo kryžiaus žemyn,; žalią mygtuką su brūkšneliu, jei norite nutolinti; arba žalių rodyklių gretimoms žemėlapius.


METAR-TAF: